Time;durP1;ratioP1;P1;durP2;ratioP2;P2;SDS_P1;SDS_P2;PMS_P1;PMS_P2;Temp;Humidity;BMP_temperature;BMP_pressure;BME280_temperature;BME280_humidity;BME280_pressure;Samples;Min_cycle;Max_cycle;Signal;HPM_P1;HPM_P2
2022/07/10 00:01:55;;;;;;;;;;;;;;;;;;4973616;28;8375;-86
2022/07/10 00:04:20;;;;;;;;;;;;;;;;;;4974536;28;8349;-85
2022/07/10 00:06:49;;;;;;;;;;;;;;;;;;4974575;28;8361;-85
2022/07/10 00:09:15;;;;;;;;;;;;;;;;;;4974267;28;7064;-85
2022/07/10 00:11:41;;;;;;;;;;;;;;;;;;4974954;28;8420;-84
2022/07/10 00:14:07;;;;;;;;;;;;;;;;;;4974246;28;7320;-86
2022/07/10 00:16:32;;;;;;;;;;;;;;;;;;4974475;28;8734;-85
2022/07/10 00:18:57;;;;;;;;;;;;;;;;;;4974948;28;8259;-86
2022/07/10 00:21:23;;;;;;;;;;;;;;;;;;4977614;28;6983;-84
2022/07/10 00:23:48;;;;;;;;;;;;;;;;;;4978628;28;8492;-85
2022/07/10 00:26:14;;;;;;;;;;;;;;;;;;4977843;28;8552;-85
2022/07/10 00:28:39;;;;;;;;;;;;;;;;;;4978213;28;8272;-84
2022/07/10 00:31:05;;;;;;;;;;;;;;;;;;4978733;28;7138;-84
2022/07/10 00:33:32;;;;;;;;;;;;;;;;;;4978099;28;8450;-85
2022/07/10 00:35:58;;;;;;;;;;;;;;;;;;4978622;28;7192;-85
2022/07/10 00:38:23;;;;;;;;;;;;;;;;;;4978143;28;9099;-85
2022/07/10 00:40:49;;;;;;;;;;;;;;;;;;4977901;28;7120;-85
2022/07/10 00:43:14;;;;;;;;;;;;;;;;;;4978053;28;8821;-86
2022/07/10 00:45:40;;;;;;;;;;;;;;;;;;4978126;28;7008;-86
2022/07/10 00:48:05;;;;;;;;;;;;;;;;;;4978474;28;7031;-85
2022/07/10 00:50:31;;;;;;;;;;;;;;;;;;4978313;28;7015;-85
2022/07/10 00:52:57;;;;;;;;;;;;;;;;;;4977513;28;8384;-85
2022/07/10 00:55:22;;;;;;;;;;;;;;;;;;4977965;28;7092;-85
2022/07/10 00:57:48;;;;;;;;;;;;;;;;;;4977438;28;7146;-85
2022/07/10 01:00:15;;;;;;;;;;;;;;;;;;4977572;28;8418;-85
2022/07/10 01:02:43;;;;;;;;;;;;;;;;;;4977497;28;6963;-87
2022/07/10 01:05:09;;;;;;;;;;;;;;;;;;4978000;28;7203;-85
2022/07/10 01:07:35;;;;;;;;;;;;;;;;;;4977808;28;8314;-83
2022/07/10 01:10:02;;;;;;;;;;;;;;;;;;4977129;28;7137;-86
2022/07/10 01:12:27;;;;;;;;;;;;;;;;;;4977365;28;7170;-85
2022/07/10 01:14:54;;;;;;;;;;;;;;;;;;4977421;28;8523;-84
2022/07/10 01:17:20;;;;;;;;;;;;;;;;;;4977802;28;7144;-85
2022/07/10 01:19:45;;;;;;;;;;;;;;;;;;4977100;28;9325;-85
2022/07/10 01:22:11;;;;;;;;;;;;;;;;;;4977346;28;8432;-84
2022/07/10 01:24:37;;;;;;;;;;;;;;;;;;4977431;28;8447;-86
2022/07/10 01:27:03;;;;;;;;;;;;;;;;;;4976814;28;8891;-85
2022/07/10 01:29:29;;;;;;;;;;;;;;;;;;4977051;28;7089;-85
2022/07/10 01:31:55;;;;;;;;;;;;;;;;;;4975838;28;7045;-85
2022/07/10 01:34:20;;;;;;;;;;;;;;;;;;4976652;28;8387;-85
2022/07/10 01:36:46;;;;;;;;;;;;;;;;;;4976996;28;7022;-83
2022/07/10 01:39:12;;;;;;;;;;;;;;;;;;4977180;28;7169;-84
2022/07/10 01:41:37;;;;;;;;;;;;;;;;;;4978682;28;7149;-85
2022/07/10 01:44:03;;;;;;;;;;;;;;;;;;4977093;28;7010;-84
2022/07/10 01:46:29;;;;;;;;;;;;;;;;;;4976698;28;7004;-85
2022/07/10 01:48:55;;;;;;;;;;;;;;;;;;4977038;28;8402;-85
2022/07/10 01:51:20;;;;;;;;;;;;;;;;;;4977031;28;8687;-85
2022/07/10 01:53:47;;;;;;;;;;;;;;;;;;4976335;28;6968;-85
2022/07/10 01:56:13;;;;;;;;;;;;;;;;;;4977023;28;7066;-84
2022/07/10 01:58:39;;;;;;;;;;;;;;;;;;4976370;28;7037;-85
2022/07/10 02:01:05;;;;;;;;;;;;;;;;;;4976749;28;8661;-86
2022/07/10 02:06:34;;;;;;;;;;;;;;;;;;4937259;29;7190;-85
2022/07/10 02:09:00;;;;;;;;;;;;;;;;;;4920929;29;8338;-85
2022/07/10 02:11:25;;;;;;;;;;;;;;;;;;4921093;29;7008;-86
2022/07/10 02:13:51;;;;;;;;;;;;;;;;;;4920873;29;8906;-86
2022/07/10 02:16:17;;;;;;;;;;;;;;;;;;4936920;29;7102;-84
2022/07/10 02:18:43;;;;;;;;;;;;;;;;;;4936700;29;7233;-85
2022/07/10 02:21:08;;;;;;;;;;;;;;;;;;4936910;29;7909;-84
2022/07/10 02:23:35;;;;;;;;;;;;;;;;;;4920872;29;7137;-84
2022/07/10 02:26:01;;;;;;;;;;;;;;;;;;4936647;29;7038;-85
2022/07/10 02:28:26;;;;;;;;;;;;;;;;;;4936117;29;7001;-84
2022/07/10 02:30:52;;;;;;;;;;;;;;;;;;4920616;29;8392;-85
2022/07/10 02:33:17;;;;;;;;;;;;;;;;;;4936436;29;8957;-85
2022/07/10 02:35:43;;;;;;;;;;;;;;;;;;4921080;29;8713;-85
2022/07/10 02:38:08;;;;;;;;;;;;;;;;;;4953232;28;7030;-86
2022/07/10 02:40:34;;;;;;;;;;;;;;;;;;4976023;28;8290;-86
2022/07/10 02:42:59;;;;;;;;;;;;;;;;;;4976160;28;8671;-86
2022/07/10 02:45:25;;;;;;;;;;;;;;;;;;4975733;28;9107;-84
2022/07/10 02:47:50;;;;;;;;;;;;;;;;;;4976811;28;7016;-85
2022/07/10 02:50:16;;;;;;;;;;;;;;;;;;4975784;28;8609;-85
2022/07/10 02:52:41;;;;;;;;;;;;;;;;;;4975893;28;8389;-85
2022/07/10 02:55:07;;;;;;;;;;;;;;;;;;4975641;28;7165;-85
2022/07/10 02:57:32;;;;;;;;;;;;;;;;;;4975797;28;6998;-86
2022/07/10 02:59:58;;;;;;;;;;;;;;;;;;4975067;28;8637;-85
2022/07/10 03:02:23;;;;;;;;;;;;;;;;;;4975076;28;8405;-85
2022/07/10 03:04:49;;;;;;;;;;;;;;;;;;4975861;28;8489;-84
2022/07/10 03:07:14;;;;;;;;;;;;;;;;;;4975391;28;8948;-86
2022/07/10 03:09:40;;;;;;;;;;;;;;;;;;4975458;28;8762;-86
2022/07/10 03:12:06;;;;;;;;;;;;;;;;;;4975388;28;6974;-85
2022/07/10 03:14:31;;;;;;;;;;;;;;;;;;4975438;28;7077;-85
2022/07/10 03:16:57;;;;;;;;;;;;;;;;;;4975462;28;8514;-85
2022/07/10 03:19:22;;;;;;;;;;;;;;;;;;4975798;28;7139;-86
2022/07/10 03:21:48;;;;;;;;;;;;;;;;;;4974930;28;7025;-85
2022/07/10 03:24:16;;;;;;;;;;;;;;;;;;4975286;28;8504;-86
2022/07/10 03:26:42;;;;;;;;;;;;;;;;;;4975158;28;8772;-86
2022/07/10 03:29:08;;;;;;;;;;;;;;;;;;4974714;28;7305;-87
2022/07/10 03:31:34;;;;;;;;;;;;;;;;;;4975041;28;7154;-86
2022/07/10 03:33:59;;;;;;;;;;;;;;;;;;4974935;28;8463;-85
2022/07/10 03:36:25;;;;;;;;;;;;;;;;;;4974956;28;8389;-86
2022/07/10 03:38:50;;;;;;;;;;;;;;;;;;4974824;28;7016;-85
2022/07/10 03:41:16;;;;;;;;;;;;;;;;;;4974981;28;9617;-86
2022/07/10 03:43:41;;;;;;;;;;;;;;;;;;4974368;28;7069;-86
2022/07/10 03:46:07;;;;;;;;;;;;;;;;;;4974551;28;8406;-84
2022/07/10 03:48:33;;;;;;;;;;;;;;;;;;4974797;28;7006;-85
2022/07/10 03:50:59;;;;;;;;;;;;;;;;;;4974785;28;8377;-85
2022/07/10 03:53:25;;;;;;;;;;;;;;;;;;4974614;28;7135;-85
2022/07/10 03:55:50;;;;;;;;;;;;;;;;;;4977521;28;8394;-85
2022/07/10 03:58:16;;;;;;;;;;;;;;;;;;4979337;28;7051;-84
2022/07/10 04:00:43;;;;;;;;;;;;;;;;;;4979096;28;8897;-84
2022/07/10 04:03:09;;;;;;;;;;;;;;;;;;4978671;28;7179;-84
2022/07/10 04:05:35;;;;;;;;;;;;;;;;;;4979099;28;8406;-85
2022/07/10 04:08:01;;;;;;;;;;;;;;;;;;4978480;28;7167;-85
2022/07/10 04:10:28;;;;;;;;;;;;;;;;;;4978796;28;7198;-85
2022/07/10 04:12:54;;;;;;;;;;;;;;;;;;4978805;28;8532;-85
2022/07/10 04:15:21;;;;;;;;;;;;;;;;;;4978663;28;8389;-83
2022/07/10 04:17:47;;;;;;;;;;;;;;;;;;4978151;28;8546;-85
2022/07/10 04:20:13;;;;;;;;;;;;;;;;;;4978003;28;7171;-85
2022/07/10 04:22:39;;;;;;;;;;;;;;;;;;4978573;28;7038;-84
2022/07/10 04:25:05;;;;;;;;;;;;;;;;;;4978113;28;8567;-84
2022/07/10 04:27:31;;;;;;;;;;;;;;;;;;4978066;28;8433;-84
2022/07/10 04:29:57;;;;;;;;;;;;;;;;;;4978322;28;7022;-84
2022/07/10 04:32:22;;;;;;;;;;;;;;;;;;4977912;28;7213;-85
2022/07/10 04:34:49;;;;;;;;;;;;;;;;;;4978251;28;7157;-85
2022/07/10 04:37:14;;;;;;;;;;;;;;;;;;4978146;28;8383;-85
2022/07/10 04:39:40;;;;;;;;;;;;;;;;;;4978025;28;8450;-84
2022/07/10 04:42:07;;;;;;;;;;;;;;;;;;4977096;28;8658;-85
2022/07/10 04:44:33;;;;;;;;;;;;;;;;;;4976533;28;8630;-86
2022/07/10 04:46:59;;;;;;;;;;;;;;;;;;4976514;28;7116;-85
2022/07/10 04:49:25;;;;;;;;;;;;;;;;;;4975276;28;7163;-84
2022/07/10 04:51:52;;;;;;;;;;;;;;;;;;4977320;28;7540;-84
2022/07/10 04:54:18;;;;;;;;;;;;;;;;;;4977558;28;8410;-86
2022/07/10 04:56:44;;;;;;;;;;;;;;;;;;4977692;28;8543;-85
2022/07/10 04:59:09;;;;;;;;;;;;;;;;;;4977687;28;7021;-85
2022/07/10 05:01:36;;;;;;;;;;;;;;;;;;4977391;28;6991;-85
2022/07/10 05:04:03;;;;;;;;;;;;;;;;;;4977593;28;7021;-85
2022/07/10 05:06:29;;;;;;;;;;;;;;;;;;4977711;28;8841;-84
2022/07/10 05:08:55;;;;;;;;;;;;;;;;;;4977852;28;7039;-85
2022/07/10 05:11:22;;;;;;;;;;;;;;;;;;4979441;28;8329;-85
2022/07/10 05:13:48;;;;;;;;;;;;;;;;;;4978148;28;6987;-84
2022/07/10 05:16:17;;;;;;;;;;;;;;;;;;4980031;28;8497;-84
2022/07/10 05:18:43;;;;;;;;;;;;;;;;;;4979129;28;7046;-84
2022/07/10 05:21:08;;;;;;;;;;;;;;;;;;4980433;28;8384;-85
2022/07/10 05:23:35;;;;;;;;;;;;;;;;;;4979785;28;7173;-84
2022/07/10 05:26:01;;;;;;;;;;;;;;;;;;4979678;28;7156;-85
2022/07/10 05:28:26;;;;;;;;;;;;;;;;;;4979362;28;8786;-85
2022/07/10 05:30:52;;;;;;;;;;;;;;;;;;4979182;28;9380;-81
2022/07/10 05:33:17;;;;;;;;;;;;;;;;;;4976452;28;8462;-81
2022/07/10 05:35:43;;;;;;;;;;;;;;;;;;4961022;28;7148;-81
2022/07/10 05:38:09;;;;;;;;;;;;;;;;;;4960955;28;8796;-81
2022/07/10 05:40:34;;;;;;;;;;;;;;;;;;4961318;28;7235;-82
2022/07/10 05:43:00;;;;;;;;;;;;;;;;;;4960579;28;6898;-81
2022/07/10 05:45:26;;;;;;;;;;;;;;;;;;4960340;28;7150;-81
2022/07/10 05:47:52;;;;;;;;;;;;;;;;;;4976987;28;7368;-82
2022/07/10 05:50:17;;;;;;;;;;;;;;;;;;4976121;28;7051;-81
2022/07/10 05:52:43;;;;;;;;;;;;;;;;;;4960270;28;8675;-83
2022/07/10 05:55:09;;;;;;;;;;;;;;;;;;4960392;28;6998;-84
2022/07/10 05:57:34;;;;;;;;;;;;;;;;;;4960347;28;7047;-83
2022/07/10 06:00:00;;;;;;;;;;;;;;;;;;4960006;28;8513;-84
2022/07/10 06:02:26;;;;;;;;;;;;;;;;;;4960598;28;8321;-83
2022/07/10 06:04:52;;;;;;;;;;;;;;;;;;4960668;28;8351;-83
2022/07/10 06:07:18;;;;;;;;;;;;;;;;;;4960313;28;8431;-84
2022/07/10 06:09:44;;;;;;;;;;;;;;;;;;4960191;28;7259;-84
2022/07/10 06:12:12;;;;;;;;;;;;;;;;;;4959910;28;8370;-84
2022/07/10 06:14:37;;;;;;;;;;;;;;;;;;4959027;28;7082;-83
2022/07/10 06:17:02;;;;;;;;;;;;;;;;;;4958873;28;7219;-83
2022/07/10 06:19:28;;;;;;;;;;;;;;;;;;4958615;28;7286;-85
2022/07/10 06:24:38;;;;;;;;;;;;;;;;;;4977240;28;6800;-84
2022/07/10 06:27:05;;;;;;;;;;;;;;;;;;4959924;28;8338;-84
2022/07/10 06:29:30;;;;;;;;;;;;;;;;;;4960219;28;7101;-86
2022/07/10 06:31:56;;;;;;;;;;;;;;;;;;4959341;28;7005;-85
2022/07/10 06:34:22;;;;;;;;;;;;;;;;;;4963263;28;7036;-87
2022/07/10 06:36:47;;;;;;;;;;;;;;;;;;4974869;28;8361;-85
2022/07/10 06:39:13;;;;;;;;;;;;;;;;;;4975383;28;8384;-85
2022/07/10 06:41:38;;;;;;;;;;;;;;;;;;4967238;28;8436;-85
2022/07/10 06:44:04;;;;;;;;;;;;;;;;;;4966611;28;8489;-85
2022/07/10 06:46:31;;;;;;;;;;;;;;;;;;4974377;28;7143;-85
2022/07/10 06:48:56;;;;;;;;;;;;;;;;;;4975041;28;7163;-84
2022/07/10 06:51:22;;;;;;;;;;;;;;;;;;4975378;28;8827;-85
2022/07/10 06:53:48;;;;;;;;;;;;;;;;;;4975621;28;8543;-85
2022/07/10 06:56:16;;;;;;;;;;;;;;;;;;4975598;28;6972;-85
2022/07/10 06:58:42;;;;;;;;;;;;;;;;;;4975292;28;8399;-85
2022/07/10 07:01:07;;;;;;;;;;;;;;;;;;4975552;28;8718;-84
2022/07/10 07:03:33;;;;;;;;;;;;;;;;;;4975630;28;7023;-85
2022/07/10 07:05:58;;;;;;;;;;;;;;;;;;4975511;28;8466;-83
2022/07/10 07:08:24;;;;;;;;;;;;;;;;;;4975427;28;7382;-83
2022/07/10 07:10:50;;;;;;;;;;;;;;;;;;4975456;28;8754;-85
2022/07/10 07:13:15;;;;;;;;;;;;;;;;;;4974932;28;7230;-84
2022/07/10 07:15:46;;;;;;;;;;;;;;;;;;4975462;28;8650;-84
2022/07/10 07:18:12;;;;;;;;;;;;;;;;;;4976187;28;7053;-84
2022/07/10 07:23:24;;;;;;;;;;;;;;;;;;4976870;28;7014;-86
2022/07/10 07:25:50;;;;;;;;;;;;;;;;;;4975428;28;7135;-86
2022/07/10 07:28:16;;;;;;;;;;;;;;;;;;4975479;28;7309;-85
2022/07/10 07:30:42;;;;;;;;;;;;;;;;;;4973852;28;8426;-86
2022/07/10 07:33:08;;;;;;;;;;;;;;;;;;4975268;28;7005;-85
2022/07/10 07:35:33;;;;;;;;;;;;;;;;;;4974806;28;7299;-84
2022/07/10 07:38:01;;;;;;;;;;;;;;;;;;4974584;28;8844;-85
2022/07/10 07:40:26;;;;;;;;;;;;;;;;;;4974126;28;8471;-86
2022/07/10 07:42:54;;;;;;;;;;;;;;;;;;4974753;28;8691;-85
2022/07/10 07:45:21;;;;;;;;;;;;;;;;;;4974354;28;8441;-85
2022/07/10 07:47:48;;;;;;;;;;;;;;;;;;4974695;28;8688;-86
2022/07/10 07:50:15;;;;;;;;;;;;;;;;;;4974825;28;8503;-86
2022/07/10 07:52:42;;;;;;;;;;;;;;;;;;4974778;28;8497;-86
2022/07/10 07:55:08;;;;;;;;;;;;;;;;;;4974559;28;7247;-86
2022/07/10 07:57:34;;;;;;;;;;;;;;;;;;4975812;28;7035;-86
2022/07/10 08:00:00;;;;;;;;;;;;;;;;;;4974587;28;8373;-85
2022/07/10 08:02:25;;;;;;;;;;;;;;;;;;4974720;28;8773;-85
2022/07/10 08:04:51;;;;;;;;;;;;;;;;;;4974552;28;8403;-86
2022/07/10 08:07:17;;;;;;;;;;;;;;;;;;4974545;28;8458;-85
2022/07/10 08:09:44;;;;;;;;;;;;;;;;;;4974510;28;7159;-84
2022/07/10 08:12:10;;;;;;;;;;;;;;;;;;4974624;28;8465;-85
2022/07/10 08:14:35;;;;;;;;;;;;;;;;;;4975130;28;8451;-85
2022/07/10 08:17:01;;;;;;;;;;;;;;;;;;4974585;28;8442;-85
2022/07/10 08:19:27;;;;;;;;;;;;;;;;;;4974740;28;6999;-86
2022/07/10 08:21:53;;;;;;;;;;;;;;;;;;4974717;28;8436;-85
2022/07/10 08:24:18;;;;;;;;;;;;;;;;;;4974784;28;9362;-86
2022/07/10 08:26:44;;;;;;;;;;;;;;;;;;4974482;28;7126;-86
2022/07/10 08:29:10;;;;;;;;;;;;;;;;;;4974289;28;8704;-86
2022/07/10 08:31:35;;;;;;;;;;;;;;;;;;4974310;28;8314;-86
2022/07/10 08:34:01;;;;;;;;;;;;;;;;;;4974304;28;7015;-86
2022/07/10 08:36:27;;;;;;;;;;;;;;;;;;4973927;28;8294;-86
2022/07/10 08:38:58;;;;;;;;;;;;;;;;;;4971505;28;7054;-87
2022/07/10 08:41:25;;;;;;;;;;;;;;;;;;4975747;28;8844;-85
2022/07/10 08:43:51;;;;;;;;;;;;;;;;;;4970186;28;8350;-85
2022/07/10 08:46:17;;;;;;;;;;;;;;;;;;4977089;28;8308;-86
2022/07/10 08:48:47;;;;;;;;;;;;;;;;;;4971695;28;8421;-86
2022/07/10 08:51:18;;;;;;;;;;;;;;;;;;4956282;28;9723;-86
2022/07/10 08:53:44;;;;;;;;;;;;;;;;;;4976878;28;8487;-85
2022/07/10 08:56:09;;;;;;;;;;;;;;;;;;4976854;28;8390;-85
2022/07/10 08:58:36;;;;;;;;;;;;;;;;;;4976684;28;7316;-87
2022/07/10 09:01:01;;;;;;;;;;;;;;;;;;4977462;28;8406;-86
2022/07/10 09:03:27;;;;;;;;;;;;;;;;;;4993164;28;8274;-86
2022/07/10 09:05:52;;;;;;;;;;;;;;;;;;4979427;28;9320;-84
2022/07/10 09:08:22;;;;;;;;;;;;;;;;;;4980029;28;8322;-86
2022/07/10 09:10:48;;;;;;;;;;;;;;;;;;4980261;28;8315;-85
2022/07/10 09:13:14;;;;;;;;;;;;;;;;;;4979523;28;8405;-83
2022/07/10 09:15:39;;;;;;;;;;;;;;;;;;4979922;28;7476;-86
2022/07/10 09:18:07;;;;;;;;;;;;;;;;;;4979725;28;7497;-86
2022/07/10 09:20:37;;;;;;;;;;;;;;;;;;4979274;28;8335;-86
2022/07/10 09:23:15;;;;;;;;;;;;;;;;;;4979447;28;6830;-85
2022/07/10 09:25:41;;;;;;;;;;;;;;;;;;4979277;28;7135;-85
2022/07/10 09:28:07;;;;;;;;;;;;;;;;;;4978718;28;8380;-85
2022/07/10 09:30:33;;;;;;;;;;;;;;;;;;4979689;28;7107;-85
2022/07/10 09:33:18;;;;;;;;;;;;;;;;;;4979555;28;8507;-85
2022/07/10 09:36:05;;;;;;;;;;;;;;;;;;4979125;28;7089;-86
2022/07/10 09:38:42;;;;;;;;;;;;;;;;;;4979445;28;7145;-84
2022/07/10 09:41:11;;;;;;;;;;;;;;;;;;4979391;28;8738;-85
2022/07/10 09:43:44;;;;;;;;;;;;;;;;;;4979628;28;7058;-85
2022/07/10 09:46:09;;;;;;;;;;;;;;;;;;4979331;28;8787;-84
2022/07/10 09:48:35;;;;;;;;;;;;;;;;;;4994624;28;7136;-83
2022/07/10 09:51:01;;;;;;;;;;;;;;;;;;4978873;28;8540;-85
2022/07/10 09:53:28;;;;;;;;;;;;;;;;;;4939681;28;8685;-85
2022/07/10 09:55:56;;;;;;;;;;;;;;;;;;4959620;28;7245;-84
2022/07/10 09:58:30;;;;;;;;;;;;;;;;;;4959659;28;8966;-85
2022/07/10 10:00:57;;;;;;;;;;;;;;;;;;4960053;28;7209;-84
2022/07/10 10:03:25;;;;;;;;;;;;;;;;;;4959551;28;8423;-85
2022/07/10 10:05:55;;;;;;;;;;;;;;;;;;4959382;28;8970;-83
2022/07/10 10:08:23;;;;;;;;;;;;;;;;;;4959754;28;8572;-84
2022/07/10 10:10:50;;;;;;;;;;;;;;;;;;4991408;28;8967;-86
2022/07/10 10:13:17;;;;;;;;;;;;;;;;;;4959404;28;8464;-85
2022/07/10 10:15:44;;;;;;;;;;;;;;;;;;4960041;28;8428;-85
2022/07/10 10:18:10;;;;;;;;;;;;;;;;;;4958955;28;8713;-82
2022/07/10 10:20:41;;;;;;;;;;;;;;;;;;4959660;28;8656;-85
2022/07/10 10:23:12;;;;;;;;;;;;;;;;;;4958559;28;7491;-86
2022/07/10 10:25:39;;;;;;;;;;;;;;;;;;4974547;28;9628;-85
2022/07/10 10:28:06;;;;;;;;;;;;;;;;;;4975122;28;7203;-83
2022/07/10 10:30:33;;;;;;;;;;;;;;;;;;4975341;28;7167;-85
2022/07/10 10:32:59;;;;;;;;;;;;;;;;;;4974232;28;7057;-84
2022/07/10 10:35:46;;;;;;;;;;;;;;;;;;4972612;28;7131;-81
2022/07/10 10:38:12;;;;;;;;;;;;;;;;;;4975163;28;7031;-86
2022/07/10 10:40:38;;;;;;;;;;;;;;;;;;4974102;28;8309;-85
2022/07/10 10:43:20;;;;;;;;;;;;;;;;;;4974944;28;6976;-84
2022/07/10 10:45:47;;;;;;;;;;;;;;;;;;4974632;28;7109;-89
2022/07/10 10:48:17;;;;;;;;;;;;;;;;;;4974384;28;8328;-86
2022/07/10 10:50:51;;;;;;;;;;;;;;;;;;4973706;28;7257;-86
2022/07/10 10:53:22;;;;;;;;;;;;;;;;;;4973997;28;8365;-87
2022/07/10 10:56:00;;;;;;;;;;;;;;;;;;4973995;28;7172;-86
2022/07/10 10:58:46;;;;;;;;;;;;;;;;;;4958515;28;8731;-87
2022/07/10 11:01:20;;;;;;;;;;;;;;;;;;4974475;28;7165;-87
2022/07/10 11:04:04;;;;;;;;;;;;;;;;;;4958116;28;8371;-86
2022/07/10 11:06:40;;;;;;;;;;;;;;;;;;4958555;28;7187;-85
2022/07/10 11:09:32;;;;;;;;;;;;;;;;;;4974480;28;8494;-84
2022/07/10 11:12:03;;;;;;;;;;;;;;;;;;4973433;28;8503;-86
2022/07/10 11:14:29;;;;;;;;;;;;;;;;;;4974153;28;8522;-84
2022/07/10 11:16:56;;;;;;;;;;;;;;;;;;4974385;28;7040;-86
2022/07/10 11:19:22;;;;;;;;;;;;;;;;;;4973823;28;8591;-86
2022/07/10 11:21:55;;;;;;;;;;;;;;;;;;4970695;28;7170;-87
2022/07/10 11:24:44;;;;;;;;;;;;;;;;;;4955464;28;8612;-86
2022/07/10 11:27:36;;;;;;;;;;;;;;;;;;4952746;28;8411;-86
2022/07/10 11:30:01;;;;;;;;;;;;;;;;;;4949892;28;7140;-86
2022/07/10 11:32:28;;;;;;;;;;;;;;;;;;4955979;28;8357;-85
2022/07/10 11:34:54;;;;;;;;;;;;;;;;;;4955707;28;7054;-86
2022/07/10 11:37:20;;;;;;;;;;;;;;;;;;4955955;28;7228;-86
2022/07/10 11:39:45;;;;;;;;;;;;;;;;;;4954504;28;7176;-84
2022/07/10 11:42:11;;;;;;;;;;;;;;;;;;4954716;28;8479;-86
2022/07/10 11:44:36;;;;;;;;;;;;;;;;;;4954933;28;7499;-86
2022/07/10 11:47:03;;;;;;;;;;;;;;;;;;4954631;28;7165;-85
2022/07/10 11:49:29;;;;;;;;;;;;;;;;;;4954836;29;7327;-85
2022/07/10 11:52:00;;;;;;;;;;;;;;;;;;4954521;29;8439;-86
2022/07/10 11:54:25;;;;;;;;;;;;;;;;;;4954130;29;8625;-86
2022/07/10 11:56:52;;;;;;;;;;;;;;;;;;4954627;29;8821;-86
2022/07/10 11:59:23;;;;;;;;;;;;;;;;;;4954746;29;7227;-86
2022/07/10 12:01:50;;;;;;;;;;;;;;;;;;4954275;29;7167;-86
2022/07/10 12:04:17;;;;;;;;;;;;;;;;;;4961169;28;8354;-84
2022/07/10 12:06:44;;;;;;;;;;;;;;;;;;4965255;28;8679;-86
2022/07/10 12:09:14;;;;;;;;;;;;;;;;;;4971020;28;7178;-83
2022/07/10 12:11:44;;;;;;;;;;;;;;;;;;4964306;28;7133;-86
2022/07/10 12:14:14;;;;;;;;;;;;;;;;;;4955539;28;8427;-86
2022/07/10 12:16:44;;;;;;;;;;;;;;;;;;4976174;28;7159;-86
2022/07/10 12:19:11;;;;;;;;;;;;;;;;;;4977613;28;8417;-85
2022/07/10 12:21:38;;;;;;;;;;;;;;;;;;4977927;28;8364;-86
2022/07/10 12:24:04;;;;;;;;;;;;;;;;;;4976691;28;7038;-85
2022/07/10 12:26:36;;;;;;;;;;;;;;;;;;4977513;28;8408;-86
2022/07/10 12:29:03;;;;;;;;;;;;;;;;;;4977685;28;8389;-86
2022/07/10 12:31:31;;;;;;;;;;;;;;;;;;4977102;28;7057;-87
2022/07/10 12:34:01;;;;;;;;;;;;;;;;;;4977132;28;8488;-86
2022/07/10 12:36:41;;;;;;;;;;;;;;;;;;4977773;28;7637;-85
2022/07/10 12:39:07;;;;;;;;;;;;;;;;;;4977293;28;7077;-87
2022/07/10 12:41:32;;;;;;;;;;;;;;;;;;4977328;28;7194;-85
2022/07/10 12:43:58;;;;;;;;;;;;;;;;;;4977144;28;6981;-86
2022/07/10 12:46:24;;;;;;;;;;;;;;;;;;4976189;28;7177;-85
2022/07/10 12:49:03;;;;;;;;;;;;;;;;;;4969246;28;7046;-86
2022/07/10 12:51:49;;;;;;;;;;;;;;;;;;4968655;28;8727;-85
2022/07/10 12:54:34;;;;;;;;;;;;;;;;;;4975400;28;8378;-85
2022/07/10 12:57:01;;;;;;;;;;;;;;;;;;4976596;28;8395;-86
2022/07/10 12:59:27;;;;;;;;;;;;;;;;;;4977045;28;8489;-86
2022/07/10 13:01:53;;;;;;;;;;;;;;;;;;4976373;28;7241;-86
2022/07/10 13:04:26;;;;;;;;;;;;;;;;;;4976560;28;7143;-87
2022/07/10 13:06:53;;;;;;;;;;;;;;;;;;4975965;28;7028;-84
2022/07/10 13:09:23;;;;;;;;;;;;;;;;;;4975193;28;7254;-87
2022/07/10 13:11:50;;;;;;;;;;;;;;;;;;4975122;28;7098;-85
2022/07/10 13:14:15;;;;;;;;;;;;;;;;;;4975087;28;8503;-87
2022/07/10 13:16:41;;;;;;;;;;;;;;;;;;4974840;28;8413;-86
2022/07/10 13:19:07;;;;;;;;;;;;;;;;;;4975537;28;7033;-85
2022/07/10 13:21:32;;;;;;;;;;;;;;;;;;4975300;28;8593;-86
2022/07/10 13:23:58;;;;;;;;;;;;;;;;;;4975975;28;7366;-86
2022/07/10 13:26:23;;;;;;;;;;;;;;;;;;4975751;28;8677;-86
2022/07/10 13:28:49;;;;;;;;;;;;;;;;;;4975735;28;8585;-87
2022/07/10 13:31:14;;;;;;;;;;;;;;;;;;4976187;28;8670;-84
2022/07/10 13:33:40;;;;;;;;;;;;;;;;;;4976418;28;8429;-85
2022/07/10 13:36:05;;;;;;;;;;;;;;;;;;4976131;28;7158;-84
2022/07/10 13:38:32;;;;;;;;;;;;;;;;;;4975951;28;8375;-87
2022/07/10 13:40:58;;;;;;;;;;;;;;;;;;4976900;28;7159;-86
2022/07/10 13:43:28;;;;;;;;;;;;;;;;;;4976390;28;8809;-86
2022/07/10 13:45:58;;;;;;;;;;;;;;;;;;4975611;28;8650;-85
2022/07/10 13:48:24;;;;;;;;;;;;;;;;;;4978250;28;8306;-85
2022/07/10 13:50:50;;;;;;;;;;;;;;;;;;4976612;28;8526;-84
2022/07/10 13:53:18;;;;;;;;;;;;;;;;;;4975740;28;8691;-85
2022/07/10 13:55:45;;;;;;;;;;;;;;;;;;4975354;28;7168;-85
2022/07/10 13:58:11;;;;;;;;;;;;;;;;;;4976369;28;8404;-85
2022/07/10 14:00:37;;;;;;;;;;;;;;;;;;4975640;28;8481;-86
2022/07/10 14:03:02;;;;;;;;;;;;;;;;;;4975553;28;8452;-85
2022/07/10 14:05:28;;;;;;;;;;;;;;;;;;4974927;28;7037;-86
2022/07/10 14:07:54;;;;;;;;;;;;;;;;;;4975495;28;8513;-86
2022/07/10 14:10:19;;;;;;;;;;;;;;;;;;4975744;28;7034;-85
2022/07/10 14:12:46;;;;;;;;;;;;;;;;;;4975063;28;6976;-81
2022/07/10 14:15:11;;;;;;;;;;;;;;;;;;4973553;28;9192;-81
2022/07/10 14:17:37;;;;;;;;;;;;;;;;;;4974874;28;7377;-85
2022/07/10 14:20:03;;;;;;;;;;;;;;;;;;4974921;28;8349;-81
2022/07/10 14:22:28;;;;;;;;;;;;;;;;;;4972863;28;8520;-86
2022/07/10 14:24:56;;;;;;;;;;;;;;;;;;4974443;28;8696;-86
2022/07/10 14:27:25;;;;;;;;;;;;;;;;;;4974951;28;8001;-85
2022/07/10 14:29:50;;;;;;;;;;;;;;;;;;4975039;28;8474;-86
2022/07/10 14:32:16;;;;;;;;;;;;;;;;;;4975687;28;7153;-86
2022/07/10 14:34:42;;;;;;;;;;;;;;;;;;4975528;28;7430;-86
2022/07/10 14:37:07;;;;;;;;;;;;;;;;;;4975560;28;7231;-84
2022/07/10 14:39:33;;;;;;;;;;;;;;;;;;4974382;28;8352;-86
2022/07/10 14:41:58;;;;;;;;;;;;;;;;;;4974287;28;8691;-86
2022/07/10 14:44:24;;;;;;;;;;;;;;;;;;4975233;28;7031;-86
2022/07/10 14:46:49;;;;;;;;;;;;;;;;;;4974673;28;7005;-86
2022/07/10 14:49:15;;;;;;;;;;;;;;;;;;4974847;28;7170;-86
2022/07/10 14:51:41;;;;;;;;;;;;;;;;;;4974929;28;8466;-86
2022/07/10 14:54:07;;;;;;;;;;;;;;;;;;4974354;28;8353;-86
2022/07/10 14:56:33;;;;;;;;;;;;;;;;;;4974793;28;9089;-82
2022/07/10 14:58:58;;;;;;;;;;;;;;;;;;4974483;28;7088;-85
2022/07/10 15:01:24;;;;;;;;;;;;;;;;;;4974056;28;8826;-86
2022/07/10 15:03:49;;;;;;;;;;;;;;;;;;4974666;28;8355;-86
2022/07/10 15:06:15;;;;;;;;;;;;;;;;;;4974792;28;7040;-85
2022/07/10 15:08:40;;;;;;;;;;;;;;;;;;4974178;28;8394;-85
2022/07/10 15:11:07;;;;;;;;;;;;;;;;;;4974479;28;8754;-86
2022/07/10 15:13:33;;;;;;;;;;;;;;;;;;4974427;28;7128;-84
2022/07/10 15:16:00;;;;;;;;;;;;;;;;;;4974226;28;7133;-84
2022/07/10 15:18:26;;;;;;;;;;;;;;;;;;4974387;28;8849;-86
2022/07/10 15:20:51;;;;;;;;;;;;;;;;;;4974358;28;7138;-85
2022/07/10 15:23:16;;;;;;;;;;;;;;;;;;4973775;28;8364;-81
2022/07/10 15:25:42;;;;;;;;;;;;;;;;;;4969181;28;8442;-87
2022/07/10 15:28:09;;;;;;;;;;;;;;;;;;4973943;28;8447;-87
2022/07/10 15:30:35;;;;;;;;;;;;;;;;;;4973593;28;8489;-87
2022/07/10 15:33:01;;;;;;;;;;;;;;;;;;4973715;28;7186;-87
2022/07/10 15:35:26;;;;;;;;;;;;;;;;;;4974045;28;8706;-86
2022/07/10 15:37:52;;;;;;;;;;;;;;;;;;4973316;28;7017;-85
2022/07/10 15:40:18;;;;;;;;;;;;;;;;;;4957039;28;7049;-85
2022/07/10 15:42:43;;;;;;;;;;;;;;;;;;4957836;28;7233;-83
2022/07/10 15:45:10;;;;;;;;;;;;;;;;;;4957105;28;8310;-83
2022/07/10 15:47:35;;;;;;;;;;;;;;;;;;4958034;28;7170;-86
2022/07/10 15:50:01;;;;;;;;;;;;;;;;;;4957017;28;8720;-85
2022/07/10 15:52:26;;;;;;;;;;;;;;;;;;4957377;28;7036;-87
2022/07/10 15:54:52;;;;;;;;;;;;;;;;;;4957772;28;8579;-86
2022/07/10 15:57:18;;;;;;;;;;;;;;;;;;4957747;28;7118;-86
2022/07/10 15:59:43;;;;;;;;;;;;;;;;;;4957228;28;8409;-84
2022/07/10 16:02:10;;;;;;;;;;;;;;;;;;4957335;28;7362;-84
2022/07/10 16:04:38;;;;;;;;;;;;;;;;;;4957317;28;8419;-83
2022/07/10 16:07:05;;;;;;;;;;;;;;;;;;4957122;28;8445;-86
2022/07/10 16:09:30;;;;;;;;;;;;;;;;;;4956790;28;8679;-86
2022/07/10 16:11:56;;;;;;;;;;;;;;;;;;4957667;28;8446;-83
2022/07/10 16:14:21;;;;;;;;;;;;;;;;;;4957484;28;8491;-84
2022/07/10 16:16:47;;;;;;;;;;;;;;;;;;4957486;28;7339;-86
2022/07/10 16:19:13;;;;;;;;;;;;;;;;;;4958004;28;7073;-84
2022/07/10 16:21:39;;;;;;;;;;;;;;;;;;4956357;28;7063;-85
2022/07/10 16:24:05;;;;;;;;;;;;;;;;;;4957167;28;8322;-85
2022/07/10 16:26:32;;;;;;;;;;;;;;;;;;4957471;28;7919;-84
2022/07/10 16:28:58;;;;;;;;;;;;;;;;;;4957019;28;7176;-86
2022/07/10 16:31:24;;;;;;;;;;;;;;;;;;4957004;28;6850;-83
2022/07/10 16:33:50;;;;;;;;;;;;;;;;;;4957282;28;7184;-86
2022/07/10 16:36:16;;;;;;;;;;;;;;;;;;4957485;28;8594;-85
2022/07/10 16:38:41;;;;;;;;;;;;;;;;;;4956783;28;7153;-81
2022/07/10 16:41:07;;;;;;;;;;;;;;;;;;4957095;28;8634;-87
2022/07/10 16:43:32;;;;;;;;;;;;;;;;;;4957437;28;7031;-87
2022/07/10 16:45:59;;;;;;;;;;;;;;;;;;4957079;28;7508;-85
2022/07/10 16:48:24;;;;;;;;;;;;;;;;;;4956552;28;8570;-85
2022/07/10 16:50:50;;;;;;;;;;;;;;;;;;4955764;28;8643;-86
2022/07/10 16:53:16;;;;;;;;;;;;;;;;;;4957122;28;8400;-85
2022/07/10 16:55:41;;;;;;;;;;;;;;;;;;4957058;28;8697;-87
2022/07/10 16:58:07;;;;;;;;;;;;;;;;;;4957312;28;8390;-86
2022/07/10 17:00:32;;;;;;;;;;;;;;;;;;4956014;28;7097;-85
2022/07/10 17:02:58;;;;;;;;;;;;;;;;;;4959728;28;8413;-84
2022/07/10 17:05:23;;;;;;;;;;;;;;;;;;4962605;28;8639;-87
2022/07/10 17:07:48;;;;;;;;;;;;;;;;;;4962707;28;7344;-85
2022/07/10 17:10:14;;;;;;;;;;;;;;;;;;4961940;28;8413;-85